Time;durP1;ratioP1;P1;durP2;ratioP2;P2;SDS_P1;SDS_P2;PMS_P1;PMS_P2;Temp;Humidity;BMP_temperature;BMP_pressure;BME280_temperature;BME280_humidity;BME280_pressure;Samples;Min_cycle;Max_cycle;Signal;HPM_P1;HPM_P2
2022/12/10 00:01:23;;;;;;;56.80;34.28;;;;;;;2.40;87.37;100306.41;5026665;28;20060;-64
2022/12/10 00:03:51;;;;;;;55.28;33.25;;;;;;;2.27;89.68;100303.13;5036789;28;20496;-64
2022/12/10 00:06:21;;;;;;;59.78;34.90;;;;;;;2.36;89.38;100310.75;5021161;28;20064;-64
2022/12/10 00:08:48;;;;;;;55.63;34.90;;;;;;;2.32;89.29;100309.66;5026891;28;20065;-65
2022/12/10 00:11:17;;;;;;;55.63;34.85;;;;;;;2.46;89.25;100302.63;5028352;28;20056;-64
2022/12/10 00:13:45;;;;;;;55.85;33.83;;;;;;;2.51;89.05;100300.69;5033254;28;20057;-65
2022/12/10 00:16:14;;;;;;;53.28;32.47;;;;;;;2.60;88.50;100301.81;5021625;28;20508;-64
2022/12/10 00:18:42;;;;;;;59.33;32.50;;;;;;;2.53;89.01;100306.69;5007910;28;20054;-65
2022/12/10 00:21:12;;;;;;;54.20;33.78;;;;;;;2.54;88.65;100307.50;5014476;28;20050;-64
2022/12/10 00:23:40;;;;;;;56.72;33.55;;;;;;;2.46;88.79;100306.13;4999652;28;20061;-64
2022/12/10 00:26:23;;;;;;;54.30;33.42;;;;;;;2.44;89.23;100324.63;5004493;28;20049;-69
2022/12/10 00:28:51;;;;;;;53.15;33.35;;;;;;;2.43;88.49;100323.00;5000273;28;20045;-65
2022/12/10 00:31:24;;;;;;;57.17;33.72;;;;;;;1.94;90.25;100329.94;5020254;28;20049;-65
2022/12/10 00:33:57;;;;;;;56.80;33.88;;;;;;;1.91;91.53;100334.00;5016858;28;20504;-65
2022/12/10 00:36:30;;;;;;;57.25;34.20;;;;;;;1.95;91.96;100328.84;5021334;28;20041;-65
2022/12/10 00:38:59;;;;;;;56.13;35.05;;;;;;;2.12;92.03;100330.28;5017759;28;20379;-64
2022/12/10 00:41:28;;;;;;;59.85;33.53;;;;;;;2.02;91.79;100335.66;5028163;28;20045;-65
2022/12/10 00:44:04;;;;;;;64.10;35.10;;;;;;;1.88;92.57;100326.38;5000169;28;20053;-64
2022/12/10 00:46:32;;;;;;;62.20;35.47;;;;;;;1.92;92.77;100327.47;5015983;28;20413;-64
2022/12/10 00:49:01;;;;;;;57.40;35.10;;;;;;;1.89;93.31;100319.03;5001018;28;20045;-64
2022/12/10 00:51:28;;;;;;;64.15;36.40;;;;;;;2.14;93.24;100324.56;5004249;28;20062;-65
2022/12/10 00:53:57;;;;;;;61.88;36.08;;;;;;;2.17;92.16;100322.13;5005431;28;20053;-64
2022/12/10 00:56:27;;;;;;;58.67;35.42;;;;;;;2.18;92.21;100322.94;5011483;28;20496;-65
2022/12/10 00:58:54;;;;;;;61.55;34.72;;;;;;;2.42;91.98;100317.84;5007611;28;20042;-64
2022/12/10 01:01:26;;;;;;;60.38;34.60;;;;;;;2.83;91.16;100316.75;5022270;28;20065;-64
2022/12/10 01:03:56;;;;;;;55.22;33.50;;;;;;;2.45;89.87;100314.56;5038333;28;20049;-64
2022/12/10 01:06:28;;;;;;;61.30;33.83;;;;;;;2.36;90.65;100330.59;5037641;28;20053;-63
2022/12/10 01:08:56;;;;;;;58.80;33.85;;;;;;;2.53;91.17;100324.91;5004862;28;20069;-64
2022/12/10 01:11:31;;;;;;;59.67;34.42;;;;;;;2.38;90.29;100322.16;5018237;28;20060;-64
2022/12/10 01:13:58;;;;;;;56.50;34.13;;;;;;;2.59;89.99;100330.09;5022729;28;20053;-63
2022/12/10 01:16:26;;;;;;;60.00;35.42;;;;;;;2.81;89.30;100332.53;5010424;28;20462;-64
2022/12/10 01:18:55;;;;;;;53.05;33.03;;;;;;;2.58;88.18;100336.59;5037590;28;20064;-64
2022/12/10 01:21:23;;;;;;;56.15;34.13;;;;;;;1.93;89.96;100344.59;5028867;28;20057;-63
2022/12/10 01:23:52;;;;;;;60.58;35.88;;;;;;;1.66;92.69;100339.31;5002654;28;20164;-64
2022/12/10 01:26:22;;;;;;;61.85;36.05;;;;;;;1.60;93.14;100345.81;5045030;28;20064;-64
2022/12/10 01:28:50;;;;;;;65.85;36.72;;;;;;;1.60;93.75;100350.41;5019022;28;20476;-64
2022/12/10 01:31:26;;;;;;;66.93;37.70;;;;;;;1.68;94.06;100348.03;5032409;28;20045;-64
2022/12/10 01:33:55;;;;;;;64.78;37.45;;;;;;;1.84;94.32;100349.72;5021453;28;20054;-65
2022/12/10 01:36:33;;;;;;;66.03;37.08;;;;;;;1.87;94.37;100348.38;5016589;28;20053;-64
2022/12/10 01:39:02;;;;;;;64.20;35.88;;;;;;;2.14;94.05;100352.53;5006906;28;20133;-64
2022/12/10 01:41:39;;;;;;;66.72;38.10;;;;;;;2.49;92.82;100365.41;5009941;28;20136;-64
2022/12/10 01:44:09;;;;;;;62.90;35.35;;;;;;;1.86;91.99;100366.56;5015423;28;20053;-65
2022/12/10 01:46:45;;;;;;;66.57;37.95;;;;;;;1.69;93.83;100365.94;5037023;28;20053;-64
2022/12/10 01:49:19;;;;;;;67.68;37.97;;;;;;;1.55;95.39;100374.81;5037175;28;20068;-64
2022/12/10 01:51:49;;;;;;;66.15;37.97;;;;;;;1.80;95.69;100373.06;5022698;28;20050;-64
2022/12/10 01:54:19;;;;;;;61.80;36.80;;;;;;;1.86;95.80;100377.44;5012231;28;20049;-64
2022/12/10 01:56:51;;;;;;;66.10;36.75;;;;;;;2.04;94.65;100378.88;5013369;28;20053;-66
2022/12/10 01:59:18;;;;;;;65.15;37.10;;;;;;;2.09;93.35;100393.25;4995691;28;20038;-64
2022/12/10 02:02:12;;;;;;;61.55;35.55;;;;;;;1.68;94.02;100396.06;5027641;28;20484;-64
2022/12/10 02:04:58;;;;;;;64.78;37.03;;;;;;;1.75;94.51;100391.22;5029841;28;20049;-64
2022/12/10 02:07:25;;;;;;;64.22;35.70;;;;;;;1.90;94.61;100391.31;5027326;28;20054;-64
2022/12/10 02:10:19;;;;;;;61.03;35.65;;;;;;;2.17;93.92;100390.06;5018696;28;20061;-64
2022/12/10 02:12:57;;;;;;;62.15;35.67;;;;;;;2.26;92.80;100393.91;4997741;28;20057;-65
2022/12/10 02:15:30;;;;;;;58.75;34.22;;;;;;;2.04;92.45;100398.69;5019035;28;20144;-64
2022/12/10 02:18:04;;;;;;;66.93;37.00;;;;;;;1.68;93.81;100388.75;5036969;28;20056;-64
2022/12/10 02:20:46;;;;;;;65.32;37.58;;;;;;;2.10;93.95;100391.38;5001250;28;20053;-64
2022/12/10 02:23:36;;;;;;;62.95;35.67;;;;;;;2.12;93.47;100403.63;5003547;28;20061;-64
2022/12/10 02:26:25;;;;;;;56.65;33.67;;;;;;;2.26;92.93;100402.06;5014512;28;20057;-65
2022/12/10 02:29:12;;;;;;;61.63;35.58;;;;;;;1.83;93.82;100402.38;5006518;28;20065;-64
2022/12/10 02:31:50;;;;;;;62.50;36.47;;;;;;;1.79;94.77;100405.91;5029030;28;20049;-64
2022/12/10 02:34:20;;;;;;;62.65;34.67;;;;;;;1.76;94.65;100407.22;5001644;28;20513;-64
2022/12/10 02:36:48;;;;;;;62.17;35.05;;;;;;;2.08;95.04;100407.13;5013461;28;20049;-64
2022/12/10 02:39:20;;;;;;;64.82;35.97;;;;;;;2.15;94.07;100405.81;4992155;28;20759;-63
2022/12/10 02:41:54;;;;;;;63.50;35.67;;;;;;;1.88;93.64;100402.41;4983017;28;20048;-65
2022/12/10 02:44:24;;;;;;;64.65;35.30;;;;;;;2.12;93.78;100405.50;5008238;28;20053;-63
2022/12/10 02:46:54;;;;;;;67.68;37.17;;;;;;;2.13;93.48;100412.56;5041763;28;20389;-64
2022/12/10 02:49:28;;;;;;;68.10;37.72;;;;;;;1.75;94.32;100418.34;4995001;28;20054;-64
2022/12/10 02:51:59;;;;;;;64.60;37.13;;;;;;;1.66;95.58;100411.78;5002421;28;20053;-64
2022/12/10 02:54:37;;;;;;;61.60;36.08;;;;;;;1.82;96.07;100413.50;4999234;28;20049;-63
2022/12/10 02:57:18;;;;;;;66.20;36.30;;;;;;;1.86;95.83;100420.06;5006421;28;20057;-65
2022/12/10 03:00:02;;;;;;;61.65;34.70;;;;;;;1.58;95.91;100415.00;5014544;28;20060;-65
2022/12/10 03:02:46;;;;;;;;;;;;;;;1.86;96.51;100404.59;5034090;28;20068;-65
2022/12/10 03:05:18;;;;;;;58.53;32.35;;;;;;;2.01;94.87;100412.81;5027208;28;20376;-65
2022/12/10 03:07:51;;;;;;;61.20;34.35;;;;;;;1.85;95.06;100405.66;5030124;28;20121;-64
2022/12/10 03:10:29;;;;;;;63.38;36.05;;;;;;;1.96;95.30;100410.06;5004589;28;20058;-63
2022/12/10 03:13:01;;;;;;;57.83;32.67;;;;;;;2.06;95.12;100412.81;5034760;28;20049;-65
2022/12/10 03:15:31;;;;;;;63.15;32.53;;;;;;;2.01;94.03;100401.94;5035477;28;20057;-65
2022/12/10 03:18:01;;;;;;;56.42;31.55;;;;;;;2.01;94.32;100401.09;5024480;28;20112;-64
2022/12/10 03:20:28;;;;;;;;;;;;;;;1.97;94.74;100408.97;5031823;28;20057;-63
2022/12/10 03:22:55;;;;;;;56.08;31.40;;;;;;;2.11;94.12;100409.31;5035305;28;19972;-64
2022/12/10 03:25:24;;;;;;;58.08;32.60;;;;;;;2.25;94.14;100413.16;5023337;28;20053;-63
2022/12/10 03:27:55;;;;;;;54.35;29.77;;;;;;;2.20;93.22;100413.97;5036453;28;20054;-64
2022/12/10 03:30:23;;;;;;;54.80;31.25;;;;;;;2.00;94.23;100413.06;5006745;28;20053;-63
2022/12/10 03:32:51;;;;;;;57.72;31.75;;;;;;;2.50;94.18;100413.25;5022563;28;20053;-67
2022/12/10 03:35:20;;;;;;;55.75;31.13;;;;;;;2.25;93.10;100419.41;5016352;28;20056;-64
2022/12/10 03:37:49;;;;;;;66.90;31.95;;;;;;;1.95;94.23;100422.00;5010635;28;20049;-64
2022/12/10 03:40:21;;;;;;;55.00;28.47;;;;;;;1.56;95.43;100434.25;5030429;28;20561;-64
2022/12/10 03:42:48;;;;;;;52.10;28.50;;;;;;;1.52;97.04;100424.19;5023688;28;20072;-63
2022/12/10 03:45:15;;;;;;;53.75;28.00;;;;;;;1.64;95.83;100428.34;5035036;28;20045;-64
2022/12/10 03:47:43;;;;;;;50.22;28.25;;;;;;;1.57;96.26;100429.66;5034493;28;20053;-64
2022/12/10 03:50:11;;;;;;;50.90;28.08;;;;;;;1.66;96.06;100426.19;5018115;28;20535;-63
2022/12/10 03:52:39;;;;;;;53.90;27.08;;;;;;;1.79;94.76;100420.31;5002385;28;20052;-64
2022/12/10 03:55:07;;;;;;;54.05;28.13;;;;;;;1.93;94.35;100428.78;5008686;28;20089;-65
2022/12/10 03:57:35;;;;;;;53.38;27.85;;;;;;;1.81;94.39;100425.47;5018901;28;20068;-64
2022/12/10 04:00:06;;;;;;;56.42;28.17;;;;;;;1.87;95.12;100429.81;5024447;28;20041;-64
2022/12/10 04:02:40;;;;;;;51.13;27.42;;;;;;;2.01;94.63;100433.69;4999790;28;20392;-64
2022/12/10 04:05:08;;;;;;;49.10;27.95;;;;;;;2.20;94.19;100432.97;5017042;28;20065;-64
2022/12/10 04:07:35;;;;;;;54.45;28.00;;;;;;;2.09;92.83;100436.72;5038256;28;20061;-64
2022/12/10 04:10:03;;;;;;;54.65;28.83;;;;;;;1.85;93.20;100430.09;5005707;28;20129;-64
2022/12/10 04:12:32;;;;;;;54.58;28.75;;;;;;;1.80;94.09;100434.66;5020926;28;20492;-63
2022/12/10 04:17:45;;;;;;;46.78;25.98;;;;;;;2.02;92.68;100441.59;5030868;28;20058;-64
2022/12/10 04:28:30;;;;;;;43.10;23.45;;;;;;;1.80;92.50;100435.50;5024026;28;20045;-62
2022/12/10 04:30:57;;;;;;;44.72;24.73;;;;;;;1.83;92.59;100442.31;5005070;28;20064;-63
2022/12/10 04:33:24;;;;;;;46.55;26.13;;;;;;;1.82;92.97;100446.91;5033535;28;20053;-64
2022/12/10 04:35:53;;;;;;;49.30;26.58;;;;;;;1.90;93.14;100440.97;5022232;28;20061;-64
2022/12/10 04:38:20;;;;;;;47.17;26.90;;;;;;;2.03;92.30;100450.56;5034700;28;20053;-63
2022/12/10 04:40:47;;;;;;;47.42;27.00;;;;;;;1.91;92.02;100447.22;5017614;28;20037;-63
2022/12/10 04:43:15;;;;;;;50.63;26.42;;;;;;;2.10;91.92;100454.69;5021115;28;20153;-63
2022/12/10 04:45:42;;;;;;;47.97;26.48;;;;;;;2.20;91.17;100456.63;5016565;28;20056;-64
2022/12/10 04:48:09;;;;;;;51.55;25.83;;;;;;;2.27;90.50;100454.47;5023114;28;20413;-64
2022/12/10 04:50:36;;;;;;;42.85;24.33;;;;;;;2.19;89.97;100455.00;5027395;28;20045;-65
2022/12/10 04:53:04;;;;;;;42.72;24.98;;;;;;;1.97;90.78;100455.13;5033408;28;20053;-64
2022/12/10 04:55:31;;;;;;;43.60;25.45;;;;;;;1.88;91.32;100451.28;5020885;28;20053;-64
2022/12/10 04:57:58;;;;;;;48.83;25.88;;;;;;;2.06;91.69;100448.13;5030079;28;20082;-65
2022/12/10 05:00:26;;;;;;;45.00;25.60;;;;;;;2.22;90.38;100455.28;5011040;28;20050;-64
2022/12/10 05:02:53;;;;;;;46.13;25.50;;;;;;;2.20;89.55;100460.16;5038038;28;20084;-64
2022/12/10 05:05:20;;;;;;;42.20;24.67;;;;;;;2.20;89.48;100465.59;5016049;28;20049;-64
2022/12/10 05:07:48;;;;;;;42.22;24.27;;;;;;;2.36;88.16;100452.88;5034155;28;20069;-64
2022/12/10 05:10:15;;;;;;;43.65;24.15;;;;;;;2.12;88.58;100460.66;5001373;28;20410;-64
2022/12/10 05:12:42;;;;;;;44.95;22.67;;;;;;;2.41;88.48;100452.09;5008189;28;20049;-64
2022/12/10 05:15:10;;;;;;;37.70;22.40;;;;;;;2.13;87.78;100454.16;5026335;28;20058;-64
2022/12/10 05:17:37;;;;;;;38.80;23.25;;;;;;;2.42;88.42;100445.56;5036542;28;20057;-64
2022/12/10 05:20:05;;;;;;;37.08;21.33;;;;;;;2.50;86.91;100456.75;5032684;28;20045;-63
2022/12/10 05:25:19;;;;;;;38.83;22.48;;;;;;;2.59;86.28;100454.31;5033755;28;20072;-65
2022/12/10 05:27:46;;;;;;;36.20;20.80;;;;;;;2.49;85.96;100455.13;5027786;28;20099;-64
2022/12/10 05:30:13;;;;;;;39.00;21.48;;;;;;;2.65;85.55;100461.41;5033687;28;20049;-64
2022/12/10 05:32:41;;;;;;;38.92;20.88;;;;;;;2.47;85.47;100461.88;5040704;28;20052;-64
2022/12/10 05:35:08;;;;;;;35.55;20.63;;;;;;;2.27;85.81;100471.59;5033009;28;20045;-64
2022/12/10 05:37:35;;;;;;;38.30;22.38;;;;;;;2.32;86.55;100459.91;5033578;28;20053;-63
2022/12/10 05:40:03;;;;;;;39.78;22.85;;;;;;;2.56;86.42;100468.44;5050882;28;20120;-64
2022/12/10 05:42:31;;;;;;;37.20;21.58;;;;;;;2.36;87.52;100471.91;5036340;28;20505;-64
2022/12/10 05:44:58;;;;;;;39.33;23.05;;;;;;;2.32;87.84;100478.16;5037887;28;20053;-64
2022/12/10 05:47:25;;;;;;;36.03;22.00;;;;;;;2.25;88.52;100481.91;5037372;28;20056;-64
2022/12/10 05:49:53;;;;;;;40.88;23.00;;;;;;;2.24;88.65;100490.34;5022356;28;20417;-64
2022/12/10 05:52:22;;;;;;;39.75;22.80;;;;;;;2.16;89.50;100494.34;5055197;28;20099;-64
2022/12/10 05:54:49;;;;;;;38.92;22.55;;;;;;;2.05;89.53;100494.56;5057434;28;20052;-64
2022/12/10 05:57:16;;;;;;;35.97;21.38;;;;;;;2.25;89.72;100478.38;5056811;28;20064;-64
2022/12/10 05:59:43;;;;;;;36.20;21.75;;;;;;;2.43;88.72;100483.34;5057648;28;20082;-64
2022/12/10 06:02:11;;;;;;;38.47;22.02;;;;;;;2.51;87.98;100488.25;5055456;28;20045;-63
2022/12/10 06:04:38;;;;;;;35.08;20.90;;;;;;;2.47;87.05;100486.34;5037804;28;20058;-66
2022/12/10 06:07:05;;;;;;;35.45;21.35;;;;;;;2.09;88.71;100492.97;5022862;28;20050;-64
2022/12/10 06:09:37;;;;;;;34.47;20.42;;;;;;;2.13;89.11;100494.06;5021372;28;20053;-64
2022/12/10 06:12:05;;;;;;;37.10;21.10;;;;;;;2.38;88.79;100498.81;5036306;28;20052;-65
2022/12/10 06:14:32;;;;;;;36.35;20.02;;;;;;;2.48;87.10;100486.09;5056503;28;20057;-64
2022/12/10 06:16:59;;;;;;;37.50;21.08;;;;;;;2.55;86.69;100496.69;5041370;28;20370;-64
2022/12/10 06:19:27;;;;;;;38.50;21.90;;;;;;;2.19;88.50;100507.44;5030828;28;20050;-64
2022/12/10 06:21:54;;;;;;;37.33;21.20;;;;;;;2.38;88.20;100506.97;5030146;28;20053;-64
2022/12/10 06:24:21;;;;;;;36.53;20.80;;;;;;;2.39;87.74;100508.63;5035578;28;20045;-65
2022/12/10 06:26:49;;;;;;;36.22;21.10;;;;;;;2.38;87.77;100520.56;5034810;28;20539;-64
2022/12/10 06:29:22;;;;;;;36.72;20.15;;;;;;;2.34;87.70;100516.75;5033552;28;20149;-64
2022/12/10 06:31:50;;;;;;;34.63;20.95;;;;;;;2.48;87.00;100513.25;5035988;28;20054;-64
2022/12/10 06:34:17;;;;;;;37.35;21.05;;;;;;;2.54;86.26;100516.81;5035898;28;20062;-64
2022/12/10 06:36:44;;;;;;;36.75;20.25;;;;;;;2.42;86.90;100527.94;5014643;28;20046;-64
2022/12/10 06:39:12;;;;;;;40.60;21.15;;;;;;;2.47;87.43;100519.78;5016764;28;20421;-64
2022/12/10 06:41:43;;;;;;;36.92;20.95;;;;;;;2.13;88.56;100529.38;5010099;28;20057;-63
2022/12/10 06:44:10;;;;;;;36.70;21.42;;;;;;;2.28;88.41;100524.84;5036799;28;20045;-64
2022/12/10 06:46:39;;;;;;;36.78;22.08;;;;;;;2.26;88.12;100526.22;5029971;28;20053;-64
2022/12/10 06:49:07;;;;;;;39.10;21.83;;;;;;;2.53;88.79;100526.06;5033654;28;20056;-64
2022/12/10 06:51:35;;;;;;;29.92;17.13;;;;;;;2.02;86.71;100535.84;5025807;28;20053;-63
2022/12/10 06:54:02;;;;;;;29.23;17.42;;;;;;;1.93;87.77;100532.81;5051328;28;20049;-63
2022/12/10 06:56:30;;;;;;;30.08;17.92;;;;;;;2.20;87.37;100538.13;5036074;28;20057;-64
2022/12/10 06:58:57;;;;;;;30.73;17.80;;;;;;;2.60;86.31;100529.38;5035266;28;20079;-64
2022/12/10 07:01:27;;;;;;;30.92;18.73;;;;;;;2.48;84.73;100535.00;5035599;28;20046;-64
2022/12/10 07:03:56;;;;;;;30.73;16.98;;;;;;;2.34;85.13;100541.22;5014369;28;20052;-64
2022/12/10 07:06:24;;;;;;;25.73;16.77;;;;;;;2.53;85.32;100545.09;5020234;28;20401;-64
2022/12/10 07:08:52;;;;;;;28.45;16.83;;;;;;;2.04;85.60;100548.06;4982338;28;20054;-64
2022/12/10 07:11:22;;;;;;;31.20;17.33;;;;;;;2.35;85.77;100553.69;5025189;28;20049;-64
2022/12/10 07:13:49;;;;;;;26.70;15.80;;;;;;;2.19;85.90;100547.38;5036306;28;20050;-62
2022/12/10 07:16:19;;;;;;;26.83;16.90;;;;;;;2.35;86.03;100546.38;5037590;28;20156;-64
2022/12/10 07:18:47;;;;;;;28.13;17.48;;;;;;;2.65;85.13;100557.38;5041874;28;20060;-64
2022/12/10 07:21:27;;;;;;;28.95;17.10;;;;;;;2.55;84.02;100553.78;5034022;28;20049;-66
2022/12/10 07:23:57;;;;;;;30.65;18.45;;;;;;;2.78;84.54;100570.50;5010525;28;20045;-65
2022/12/10 07:26:27;;;;;;;35.92;19.15;;;;;;;2.76;84.84;100561.78;5030393;28;20064;-65
2022/12/10 07:28:55;;;;;;;30.83;19.23;;;;;;;2.98;84.02;100567.03;5036520;28;20060;-65
2022/12/10 07:31:23;;;;;;;37.75;19.90;;;;;;;2.72;84.97;100570.75;5028163;28;20053;-65
2022/12/10 07:33:52;;;;;;;34.67;20.83;;;;;;;2.45;85.95;100579.03;5038473;28;20488;-67
2022/12/10 07:36:22;;;;;;;37.13;21.10;;;;;;;2.61;87.00;100575.31;5011459;28;20063;-65
2022/12/10 07:38:50;;;;;;;31.60;19.50;;;;;;;2.71;86.02;100580.81;4981690;28;20069;-66
2022/12/10 07:41:18;;;;;;;34.10;19.80;;;;;;;3.01;85.10;100567.31;5011376;28;20064;-65
2022/12/10 07:43:46;;;;;;;32.72;19.67;;;;;;;2.56;84.82;100579.91;5035239;28;20049;-65
2022/12/10 07:46:13;;;;;;;32.10;19.30;;;;;;;2.44;85.75;100585.53;5043684;28;20063;-65
2022/12/10 07:48:43;;;;;;;34.22;19.27;;;;;;;2.43;85.87;100591.25;5055766;28;20488;-66
2022/12/10 07:51:10;;;;;;;36.00;20.40;;;;;;;2.40;86.75;100586.34;5054849;28;20048;-65
2022/12/10 07:53:38;;;;;;;28.13;17.20;;;;;;;2.36;86.28;100596.09;5037258;28;20048;-64
2022/12/10 07:56:07;;;;;;;37.72;18.30;;;;;;;2.65;85.71;100592.72;5036521;28;20041;-65
2022/12/10 07:58:35;;;;;;;31.13;17.88;;;;;;;2.53;84.75;100594.84;5018461;28;20050;-65
2022/12/10 08:01:11;;;;;;;31.95;17.60;;;;;;;2.63;85.08;100594.91;5033503;28;20045;-65
2022/12/10 08:03:38;;;;;;;25.95;15.68;;;;;;;2.83;83.39;100597.72;5017010;28;20535;-65
2022/12/10 08:06:11;;;;;;;29.25;17.35;;;;;;;2.30;85.25;100598.78;5033898;28;20045;-65
2022/12/10 08:08:39;;;;;;;30.75;16.95;;;;;;;2.54;85.56;100599.22;5033508;28;20145;-65
2022/12/10 08:11:08;;;;;;;30.73;17.25;;;;;;;2.58;84.85;100600.31;5041038;28;20045;-65
2022/12/10 08:13:35;;;;;;;30.88;17.23;;;;;;;2.46;84.89;100607.06;5053733;28;20067;-66
2022/12/10 08:16:22;;;;;;;31.52;16.77;;;;;;;2.87;84.50;100612.44;5053222;28;20072;-64
2022/12/10 08:18:50;;;;;;;32.00;16.83;;;;;;;2.91;82.89;100623.59;5017187;28;20046;-66
2022/12/10 08:21:19;;;;;;;34.45;17.27;;;;;;;2.81;83.58;100629.78;5034140;28;20049;-64
2022/12/10 08:23:47;;;;;;;24.58;15.30;;;;;;;2.85;83.19;100627.38;5033496;28;20042;-65
2022/12/10 08:26:17;;;;;;;24.17;14.15;;;;;;;2.62;83.01;100631.31;5020846;28;20132;-65
2022/12/10 08:28:46;;;;;;;26.10;15.27;;;;;;;2.57;84.06;100641.34;5034547;28;20056;-65
2022/12/10 08:31:16;;;;;;;31.95;18.13;;;;;;;3.04;83.13;100637.53;5005912;28;20064;-64
2022/12/10 08:33:44;;;;;;;28.23;16.05;;;;;;;3.14;81.97;100636.72;5035020;28;20046;-64
2022/12/10 08:36:12;;;;;;;27.60;15.48;;;;;;;3.17;81.68;100642.47;5034157;28;20056;-65
2022/12/10 08:38:40;;;;;;;26.80;14.83;;;;;;;3.44;81.29;100650.44;5034042;28;20140;-65
2022/12/10 08:41:10;;;;;;;26.08;15.23;;;;;;;3.33;79.94;100643.31;5025555;28;20060;-67
2022/12/10 08:43:38;;;;;;;23.88;15.25;;;;;;;3.29;80.93;100647.69;5035063;28;20401;-67
2022/12/10 08:46:06;;;;;;;25.38;14.55;;;;;;;3.19;80.90;100643.00;5023412;28;20080;-64
2022/12/10 08:48:35;;;;;;;27.95;15.23;;;;;;;2.95;80.68;100644.56;5032795;28;20048;-65
2022/12/10 08:51:03;;;;;;;26.48;15.98;;;;;;;3.18;81.27;100648.72;5018500;28;20045;-63
2022/12/10 08:53:31;;;;;;;26.23;15.15;;;;;;;3.32;80.39;100644.44;5034454;28;20045;-64
2022/12/10 08:55:59;;;;;;;22.42;14.38;;;;;;;3.37;79.62;100649.88;5003288;28;20056;-63
2022/12/10 08:58:26;;;;;;;30.38;16.42;;;;;;;3.19;79.92;100653.09;5032519;28;20060;-65
2022/12/10 09:00:53;;;;;;;25.58;15.93;;;;;;;3.26;80.43;100659.91;5032647;28;20046;-64
2022/12/10 09:03:21;;;;;;;27.88;15.88;;;;;;;3.39;80.21;100661.31;5032886;28;20054;-64
2022/12/10 09:05:48;;;;;;;28.65;16.38;;;;;;;3.27;80.06;100660.75;5033754;28;20057;-62
2022/12/10 09:08:16;;;;;;;29.10;17.13;;;;;;;3.26;79.99;100659.13;5003548;28;20056;-62
2022/12/10 09:10:43;;;;;;;29.85;16.80;;;;;;;2.86;81.91;100662.44;5002565;28;20068;-63
2022/12/10 09:13:11;;;;;;;27.30;16.73;;;;;;;2.86;82.35;100667.91;5032738;28;20049;-63
2022/12/10 09:15:38;;;;;;;28.02;16.27;;;;;;;2.91;82.78;100673.34;5035242;28;20045;-63
2022/12/10 09:18:05;;;;;;;30.42;17.67;;;;;;;3.01;82.87;100676.16;5054539;28;20040;-64
2022/12/10 09:20:33;;;;;;;28.85;17.75;;;;;;;3.34;81.52;100673.03;5057703;28;20051;-63
2022/12/10 09:23:00;;;;;;;28.50;16.67;;;;;;;3.33;80.54;100673.25;5040923;28;20041;-63
2022/12/10 09:25:27;;;;;;;27.65;17.77;;;;;;;3.00;80.55;100677.22;5037767;28;20049;-67
2022/12/10 09:27:55;;;;;;;26.27;16.08;;;;;;;3.43;80.22;100673.31;5036755;28;20419;-63
2022/12/10 09:30:22;;;;;;;29.17;16.77;;;;;;;3.27;79.90;100677.91;5032199;28;20073;-63
2022/12/10 09:32:49;;;;;;;31.65;17.38;;;;;;;3.35;80.49;100679.25;5036369;28;20048;-64
2022/12/10 09:35:17;;;;;;;25.77;15.55;;;;;;;3.32;79.31;100685.25;5037638;28;20125;-64
2022/12/10 09:37:44;;;;;;;29.52;17.67;;;;;;;3.27;80.50;100682.50;5007001;28;20417;-63
2022/12/10 09:40:25;;;;;;;29.13;17.70;;;;;;;3.45;79.90;100674.69;5036658;28;20072;-64
2022/12/10 09:42:59;;;;;;;30.58;16.90;;;;;;;3.58;79.45;100686.16;4999504;28;20141;-63
2022/12/10 09:45:34;;;;;;;33.58;17.38;;;;;;;3.54;79.86;100687.78;5036349;28;20068;-63
2022/12/10 09:48:21;;;;;;;30.20;18.85;;;;;;;3.60;79.66;100682.09;5013980;28;20056;-66
2022/12/10 09:50:59;;;;;;;31.30;18.30;;;;;;;3.71;79.16;100688.38;5020014;28;20049;-67
2022/12/10 09:53:28;;;;;;;32.35;17.75;;;;;;;3.50;79.08;100690.22;5021311;28;20057;-67
2022/12/10 09:55:57;;;;;;;25.58;16.67;;;;;;;3.73;79.28;100695.16;5019635;28;20072;-66
2022/12/10 09:58:26;;;;;;;35.70;19.27;;;;;;;3.46;78.43;100694.56;5004717;28;20050;-67
2022/12/10 10:01:03;;;;;;;31.38;18.30;;;;;;;3.23;79.66;100695.84;5042886;28;20041;-67
2022/12/10 10:03:38;;;;;;;34.92;18.23;;;;;;;3.42;79.92;100697.00;5037334;28;20071;-65
2022/12/10 10:06:08;;;;;;;30.40;18.00;;;;;;;3.70;79.07;100693.00;5019840;28;20065;-68
2022/12/10 10:08:50;;;;;;;28.17;17.63;;;;;;;3.45;79.05;100692.94;5000614;28;20054;-69
2022/12/10 10:11:20;;;;;;;33.65;18.85;;;;;;;3.63;79.07;100686.97;5005068;28;20068;-67
2022/12/10 10:14:12;;;;;;;33.63;19.65;;;;;;;3.86;78.39;100689.22;5052002;28;20060;-68
2022/12/10 10:16:45;;;;;;;28.38;17.88;;;;;;;4.18;77.35;100688.97;4999260;28;20052;-69
2022/12/10 10:19:15;;;;;;;29.02;17.60;;;;;;;4.18;76.70;100689.81;5032947;28;20045;-67
2022/12/10 10:21:45;;;;;;;29.88;18.00;;;;;;;4.47;76.29;100685.44;5028037;28;20053;-64
2022/12/10 10:24:15;;;;;;;33.58;18.75;;;;;;;4.59;75.36;100683.25;5049668;28;20420;-67
2022/12/10 10:26:43;;;;;;;31.30;19.27;;;;;;;4.47;74.90;100687.34;5026121;28;20068;-66
2022/12/10 10:29:13;;;;;;;31.45;18.70;;;;;;;4.44;74.04;100679.72;5017295;28;20049;-65
2022/12/10 10:31:41;;;;;;;29.02;17.90;;;;;;;4.35;74.35;100692.25;5024123;28;20052;-66
2022/12/10 10:34:21;;;;;;;34.67;18.25;;;;;;;4.77;73.93;100687.31;4999004;28;20055;-67
2022/12/10 10:37:00;;;;;;;30.05;18.67;;;;;;;4.37;73.80;100690.91;5001088;28;20045;-67
2022/12/10 10:39:30;;;;;;;30.10;18.63;;;;;;;4.69;74.08;100689.78;5016761;28;20053;-66
2022/12/10 10:41:58;;;;;;;33.10;18.20;;;;;;;4.18;73.42;100687.09;5013746;28;20055;-66
2022/12/10 10:44:28;;;;;;;30.98;18.20;;;;;;;4.18;76.95;100688.97;5027897;28;20049;-67
2022/12/10 10:46:55;;;;;;;27.65;18.05;;;;;;;4.14;75.80;100691.44;5026498;28;20056;-66
2022/12/10 10:49:26;;;;;;;30.67;19.05;;;;;;;4.13;75.05;100684.34;5036065;28;20424;-66
2022/12/10 10:51:59;;;;;;;29.23;17.60;;;;;;;4.16;74.61;100696.63;5050530;28;20052;-66
2022/12/10 10:54:38;;;;;;;27.63;17.40;;;;;;;4.29;74.67;100685.16;5039039;28;20045;-68
2022/12/10 10:57:12;;;;;;;28.75;18.00;;;;;;;3.97;75.16;100687.31;5056116;28;20048;-67
2022/12/10 10:59:39;;;;;;;28.55;16.85;;;;;;;4.06;74.70;100693.88;5021837;28;20057;-66
2022/12/10 11:02:19;;;;;;;28.58;18.15;;;;;;;3.73;75.42;100695.16;5033845;28;20064;-67
2022/12/10 11:04:52;;;;;;;30.73;18.58;;;;;;;3.62;76.22;100690.81;5056426;28;20056;-65
2022/12/10 11:07:26;;;;;;;28.50;17.92;;;;;;;3.77;76.32;100696.28;4995168;28;20072;-67
2022/12/10 11:09:54;;;;;;;30.73;18.23;;;;;;;4.10;75.92;100703.97;5014875;28;20053;-66
2022/12/10 11:12:30;;;;;;;26.10;16.55;;;;;;;4.47;75.61;100701.78;4979348;28;20050;-66
2022/12/10 11:14:57;;;;;;;29.73;16.80;;;;;;;4.64;73.90;100690.59;4996755;28;20575;-68
2022/12/10 11:17:26;;;;;;;29.98;17.08;;;;;;;4.55;73.93;100705.88;5006651;28;20053;-67
2022/12/10 11:20:09;;;;;;;28.33;17.73;;;;;;;4.60;73.32;100698.50;5054507;28;20060;-68
2022/12/10 11:22:37;;;;;;;33.03;19.45;;;;;;;4.45;73.47;100694.97;5001892;28;20516;-67
2022/12/10 11:25:10;;;;;;;30.83;17.45;;;;;;;4.32;74.21;100696.34;5030337;28;20037;-67
2022/12/10 11:27:49;;;;;;;30.92;18.73;;;;;;;4.32;74.25;100699.06;4983404;28;20057;-67
2022/12/10 11:30:23;;;;;;;31.52;17.98;;;;;;;4.27;73.35;100687.34;5017698;28;20396;-68
2022/12/10 11:33:27;;;;;;;29.52;18.00;;;;;;;4.39;73.54;100682.44;5018291;28;20060;-68
2022/12/10 11:36:14;;;;;;;27.52;17.92;;;;;;;4.87;73.44;100679.09;5017628;28;20064;-68
2022/12/10 11:38:54;;;;;;;30.02;17.02;;;;;;;4.95;72.22;100674.97;5018544;28;20049;-68
2022/12/10 11:41:34;;;;;;;28.90;16.95;;;;;;;5.06;71.55;100673.84;5023288;28;20145;-68
2022/12/10 11:44:11;;;;;;;;;;;;;;;4.98;71.09;100675.25;5033180;28;20049;-69
2022/12/10 11:47:08;;;;;;;28.00;16.52;;;;;;;5.16;71.00;100676.56;5047272;28;20495;-68